createdAt,value
2019-03-12T00:00:37.716Z,55.80
2019-03-12T00:03:32.899Z,55.80
2019-03-12T00:06:27.718Z,55.70
2019-03-12T00:09:22.731Z,55.60
2019-03-12T00:12:17.213Z,55.70
2019-03-12T00:15:13.162Z,55.80
2019-03-12T00:18:07.616Z,55.70
2019-03-12T00:21:03.583Z,55.70
2019-03-12T00:23:58.095Z,55.70
2019-03-12T00:26:52.695Z,56.00
2019-03-12T00:29:47.380Z,55.90
2019-03-12T00:32:42.240Z,55.70
2019-03-12T00:35:36.796Z,55.80
2019-03-12T00:38:31.184Z,55.70
2019-03-12T00:41:25.989Z,56.00
2019-03-12T00:44:18.463Z,55.90
2019-03-12T00:47:13.289Z,55.80
2019-03-12T00:50:09.434Z,55.80
2019-03-12T00:53:03.720Z,56.00
2019-03-12T00:55:58.209Z,55.80
2019-03-12T00:58:52.909Z,56.10
2019-03-12T01:01:47.659Z,55.90
2019-03-12T01:04:42.251Z,55.90
2019-03-12T01:07:36.969Z,56.00
2019-03-12T01:10:31.674Z,56.00
2019-03-12T01:13:26.210Z,55.90
2019-03-12T01:16:21.022Z,56.00
2019-03-12T01:19:15.962Z,56.00
2019-03-12T01:22:10.961Z,55.90
2019-03-12T01:25:05.665Z,55.80
2019-03-12T01:28:00.234Z,55.50
2019-03-12T01:30:55.163Z,55.50
2019-03-12T01:33:50.186Z,55.20
2019-03-12T01:36:44.974Z,55.30
2019-03-12T01:39:39.363Z,55.20
2019-03-12T01:42:33.791Z,55.50
2019-03-12T01:45:28.546Z,55.40
2019-03-12T01:48:24.351Z,55.40
2019-03-12T01:51:20.709Z,55.40
2019-03-12T01:54:15.251Z,55.30
2019-03-12T01:57:09.898Z,55.50
2019-03-12T02:00:04.779Z,55.50
2019-03-12T02:03:01.934Z,55.80
2019-03-12T02:05:57.783Z,56.00
2019-03-12T02:08:52.283Z,55.80
2019-03-12T02:11:46.750Z,55.80
2019-03-12T02:14:41.551Z,55.90
2019-03-12T02:17:36.140Z,55.40
2019-03-12T02:20:32.055Z,55.70
2019-03-12T02:23:28.964Z,55.90
2019-03-12T02:26:23.081Z,55.90
2019-03-12T02:29:17.508Z,56.40
2019-03-12T02:32:12.240Z,56.30
2019-03-12T02:35:07.374Z,56.20
2019-03-12T02:38:01.880Z,55.90
2019-03-12T02:40:57.218Z,55.90
2019-03-12T02:43:53.371Z,56.10
2019-03-12T02:46:47.909Z,55.80
2019-03-12T02:49:42.857Z,55.80
2019-03-12T02:52:37.330Z,55.80
2019-03-12T02:55:31.876Z,55.90
2019-03-12T02:58:26.546Z,55.90
2019-03-12T03:01:21.164Z,55.50
2019-03-12T03:04:15.622Z,55.80
2019-03-12T03:07:21.388Z,57.80
2019-03-12T03:10:12.310Z,56.90
2019-03-12T03:13:07.015Z,56.40
2019-03-12T03:16:03.340Z,56.30
2019-03-12T03:18:58.112Z,56.30
2019-03-12T03:21:52.874Z,56.00
2019-03-12T03:24:47.657Z,56.00
2019-03-12T03:27:44.316Z,56.00
2019-03-12T03:30:38.746Z,56.20
2019-03-12T03:36:25.058Z,56.10
2019-03-12T03:39:19.810Z,55.90
2019-03-12T03:42:14.387Z,56.00
2019-03-12T03:45:09.296Z,55.90
2019-03-12T03:47:59.802Z,55.90
2019-03-12T03:50:54.448Z,56.00
2019-03-12T03:53:47.133Z,55.10
2019-03-12T03:59:28.006Z,53.00
2019-03-12T04:02:23.139Z,53.00
2019-03-12T04:05:19.286Z,54.30
2019-03-12T04:08:13.986Z,53.10
2019-03-12T04:11:08.397Z,52.00
2019-03-12T04:14:02.877Z,51.20
2019-03-12T04:16:57.132Z,50.30
2019-03-12T04:19:51.774Z,50.00
2019-03-12T04:22:47.752Z,49.10
2019-03-12T04:25:42.226Z,52.00
2019-03-12T04:28:35.527Z,50.10
2019-03-12T04:31:29.842Z,49.10
2019-03-12T04:34:36.475Z,48.60
2019-03-12T04:37:30.787Z,48.20
2019-03-12T04:40:25.183Z,47.90
2019-03-12T04:43:20.171Z,48.00
2019-03-12T04:46:15.843Z,47.80
2019-03-12T04:49:10.259Z,48.10
2019-03-12T04:52:09.493Z,50.90
2019-03-12T04:55:12.277Z,49.10
2019-03-12T04:58:06.805Z,49.00
2019-03-12T05:01:45.205Z,48.50
2019-03-12T05:05:19.889Z,48.60
2019-03-12T05:08:22.754Z,48.90
2019-03-12T05:11:26.577Z,48.50
2019-03-12T05:15:07.176Z,48.10
2019-03-12T05:21:45.134Z,48.20
2019-03-12T05:24:42.034Z,48.30
2019-03-12T05:27:40.928Z,48.60
2019-03-12T05:30:47.041Z,48.10
2019-03-12T05:33:48.075Z,50.30
2019-03-12T05:36:44.030Z,55.70
2019-03-12T05:39:51.987Z,55.30
2019-03-12T05:46:29.406Z,55.50
2019-03-12T05:49:24.802Z,55.40
2019-03-12T05:52:27.114Z,55.20
2019-03-12T05:55:25.915Z,55.30
2019-03-12T06:01:47.723Z,55.40
2019-03-12T06:08:04.605Z,55.40
2019-03-12T06:11:21.439Z,55.60
2019-03-12T06:14:19.051Z,55.60
2019-03-12T06:17:20.800Z,55.70
2019-03-12T06:20:21.025Z,55.70
2019-03-12T06:23:15.215Z,56.10
2019-03-12T06:26:12.570Z,55.70
2019-03-12T06:29:11.790Z,55.40
2019-03-12T06:32:22.540Z,55.50
2019-03-12T06:35:49.989Z,55.70
2019-03-12T06:38:56.421Z,56.80
2019-03-12T06:42:19.765Z,56.30
2019-03-12T06:49:07.857Z,55.80
2019-03-12T06:52:13.849Z,56.30
2019-03-12T06:58:50.705Z,54.20
2019-03-12T07:02:14.466Z,53.90
2019-03-12T07:05:30.411Z,54.00
2019-03-12T07:08:53.499Z,54.10
2019-03-12T07:12:11.598Z,54.00
2019-03-12T07:15:31.851Z,54.70
2019-03-12T07:18:47.850Z,53.70
2019-03-12T07:21:56.966Z,53.50
2019-03-12T07:25:23.181Z,53.30
2019-03-12T07:28:49.467Z,53.00
2019-03-12T07:31:46.042Z,52.90
2019-03-12T07:35:06.087Z,52.70
2019-03-12T07:38:25.119Z,53.10
2019-03-12T07:42:01.180Z,53.40
2019-03-12T07:45:23.908Z,53.20
2019-03-12T07:48:42.717Z,53.20
2019-03-12T07:51:54.860Z,53.30
2019-03-12T07:54:59.124Z,51.50
2019-03-12T07:58:10.987Z,51.10
2019-03-12T08:01:24.884Z,51.20
2019-03-12T08:04:49.401Z,51.50
2019-03-12T08:08:01.485Z,51.50
2019-03-12T08:11:11.006Z,50.80
2019-03-12T08:14:22.764Z,51.70
2019-03-12T08:17:33.188Z,51.90
2019-03-12T08:20:47.587Z,51.60
2019-03-12T08:23:53.812Z,50.90
2019-03-12T08:26:55.649Z,50.50
2019-03-12T08:29:57.742Z,50.40
2019-03-12T08:33:02.907Z,50.40
2019-03-12T08:36:14.636Z,50.40
2019-03-12T08:39:16.314Z,50.90
2019-03-12T08:42:33.674Z,51.50
2019-03-12T08:45:48.815Z,51.80
2019-03-12T08:49:19.202Z,51.80
2019-03-12T08:52:32.101Z,52.50
2019-03-12T08:55:50.886Z,52.70
2019-03-12T08:59:01.645Z,52.90
2019-03-12T09:02:21.513Z,52.90
2019-03-12T09:05:34.953Z,53.30
2019-03-12T09:08:39.236Z,53.50
2019-03-12T09:11:52.536Z,53.40
2019-03-12T09:15:13.499Z,53.10
2019-03-12T09:18:33.295Z,53.20
2019-03-12T09:21:44.488Z,53.40
2019-03-12T09:25:03.852Z,53.40
2019-03-12T09:28:31.625Z,53.90
2019-03-12T09:31:39.839Z,54.20
2019-03-12T09:34:53.825Z,54.10
2019-03-12T09:38:17.470Z,54.30
2019-03-12T09:41:50.676Z,54.50
2019-03-12T09:45:04.014Z,54.60
2019-03-12T09:51:09.148Z,54.60
2019-03-12T09:54:20.518Z,54.70
2019-03-12T09:57:24.355Z,54.80
2019-03-12T10:00:42.371Z,54.90
2019-03-12T10:04:08.672Z,54.70
2019-03-12T10:07:43.892Z,54.80
2019-03-12T10:10:54.605Z,55.20
2019-03-12T10:14:09.109Z,57.40
2019-03-12T10:17:38.797Z,57.80
2019-03-12T10:20:50.525Z,57.90
2019-03-12T10:23:59.535Z,57.40
2019-03-12T10:26:59.509Z,56.80
2019-03-12T10:30:14.869Z,55.90
2019-03-12T10:33:25.374Z,55.50
2019-03-12T10:36:41.152Z,54.70
2019-03-12T10:40:22.017Z,54.70
2019-03-12T10:43:41.231Z,55.20
2019-03-12T10:46:47.913Z,56.50
2019-03-12T10:49:48.607Z,58.20
2019-03-12T10:52:48.351Z,58.70
2019-03-12T10:55:44.765Z,58.70
2019-03-12T10:58:41.957Z,58.40
2019-03-12T11:01:40.651Z,58.40
2019-03-12T11:04:37.235Z,58.20
2019-03-12T11:07:42.379Z,57.90
2019-03-12T11:10:42.979Z,58.10
2019-03-12T11:13:47.533Z,58.20
2019-03-12T11:16:46.136Z,57.90
2019-03-12T11:22:42.048Z,57.80
2019-03-12T11:25:39.432Z,57.90
2019-03-12T11:28:35.329Z,57.70
2019-03-12T11:31:31.948Z,57.70
2019-03-12T11:34:30.394Z,57.60
2019-03-12T11:37:27.222Z,57.90
2019-03-12T11:40:23.712Z,57.00
2019-03-12T11:43:25.828Z,56.90
2019-03-12T11:46:23.966Z,56.90
2019-03-12T11:49:20.249Z,56.80
2019-03-12T11:52:16.189Z,56.60
2019-03-12T11:55:13.661Z,56.50
2019-03-12T11:58:08.405Z,56.50
2019-03-12T12:01:08.033Z,56.50
2019-03-12T12:04:09.087Z,56.50
2019-03-12T12:12:50.715Z,56.30
2019-03-12T12:15:47.455Z,56.30
2019-03-12T12:18:42.430Z,56.30
2019-03-12T12:21:51.861Z,56.40
2019-03-12T12:24:48.483Z,56.30
2019-03-12T12:27:42.919Z,56.30
2019-03-12T12:30:37.717Z,56.30
2019-03-12T12:33:33.809Z,56.20
2019-03-12T12:36:28.650Z,56.10
2019-03-12T12:39:23.697Z,56.30
2019-03-12T12:42:18.743Z,56.10
2019-03-12T12:45:16.068Z,56.10
2019-03-12T12:48:13.277Z,56.20
2019-03-12T12:51:08.428Z,56.50
2019-03-12T12:54:03.197Z,56.20
2019-03-12T12:56:57.980Z,56.00
2019-03-12T12:59:56.009Z,56.10
2019-03-12T13:02:50.965Z,56.00
2019-03-12T13:05:45.852Z,56.00
2019-03-12T13:08:40.888Z,56.00
2019-03-12T13:11:35.788Z,56.00
2019-03-12T13:14:40.961Z,56.00
2019-03-12T13:17:26.530Z,55.90
2019-03-12T13:20:21.676Z,55.90
2019-03-12T13:23:16.647Z,56.20
2019-03-12T13:26:14.205Z,56.50
2019-03-12T13:29:09.077Z,56.30
2019-03-12T13:32:13.561Z,56.50
2019-03-12T13:35:00.749Z,56.30
2019-03-12T13:37:56.959Z,56.30
2019-03-12T13:40:51.584Z,56.10
2019-03-12T13:43:46.434Z,56.20
2019-03-12T13:46:41.114Z,56.20
2019-03-12T13:49:36.379Z,56.20
2019-03-12T13:52:31.330Z,56.30
2019-03-12T13:55:26.345Z,56.00
2019-03-12T13:58:20.778Z,56.10
2019-03-12T14:01:15.798Z,56.20
2019-03-12T14:04:11.101Z,56.10
2019-03-12T14:07:06.346Z,56.10
2019-03-12T14:10:01.150Z,56.10
2019-03-12T14:12:56.888Z,56.20
2019-03-12T14:15:52.222Z,56.20
2019-03-12T14:18:47.139Z,56.10
2019-03-12T14:21:46.105Z,56.20
2019-03-12T14:24:41.033Z,56.20
2019-03-12T14:27:36.237Z,56.30
2019-03-12T14:30:31.115Z,56.10
2019-03-12T14:33:27.219Z,56.20
2019-03-12T14:36:15.893Z,56.20
2019-03-12T14:39:11.807Z,56.10
2019-03-12T14:42:07.956Z,56.40
2019-03-12T14:45:02.609Z,56.20
2019-03-12T14:48:00.954Z,56.40
2019-03-12T14:50:55.812Z,56.30
2019-03-12T14:53:51.453Z,56.30
2019-03-12T14:56:46.520Z,56.30
2019-03-12T14:59:41.823Z,56.30
2019-03-12T15:02:36.379Z,56.10
2019-03-12T15:05:30.990Z,56.30
2019-03-12T15:08:26.029Z,56.50
2019-03-12T15:11:21.056Z,56.40
2019-03-12T15:14:16.154Z,56.50
2019-03-12T15:17:11.432Z,56.50
2019-03-12T15:20:06.719Z,56.50
2019-03-12T15:23:01.511Z,56.50
2019-03-12T15:25:56.507Z,56.40
2019-03-12T15:28:51.225Z,56.50
2019-03-12T15:31:47.769Z,56.70
2019-03-12T15:37:36.408Z,56.60
2019-03-12T15:40:31.324Z,56.60
2019-03-12T15:43:25.801Z,56.60
2019-03-12T15:46:20.608Z,56.60
2019-03-12T15:49:15.229Z,56.70
2019-03-12T15:52:10.483Z,56.50
2019-03-12T15:55:05.428Z,56.70
2019-03-12T15:58:01.254Z,56.60
2019-03-12T16:00:55.951Z,56.60
2019-03-12T16:03:50.630Z,56.60
2019-03-12T16:06:44.296Z,56.80
2019-03-12T16:09:39.065Z,56.80
2019-03-12T16:12:35.239Z,56.80
2019-03-12T16:15:30.508Z,56.70
2019-03-12T16:18:24.658Z,56.70
2019-03-12T16:21:19.369Z,56.70
2019-03-12T16:24:14.235Z,56.70
